createdAt,value
2019-02-06T00:03:59.632Z,45.80
2019-02-06T00:09:01.838Z,41.03
2019-02-06T00:14:04.950Z,43.03
2019-02-06T00:19:07.063Z,46.07
2019-02-06T00:24:09.252Z,43.50
2019-02-06T00:29:11.319Z,48.07
2019-02-06T00:34:13.439Z,42.50
2019-02-06T00:39:15.653Z,43.43
2019-02-06T00:44:17.767Z,46.27
2019-02-06T00:49:19.986Z,51.23
2019-02-06T00:54:21.880Z,50.57
2019-02-06T00:59:24.262Z,43.87
2019-02-06T01:04:26.834Z,43.63
2019-02-06T01:09:28.866Z,39.90
2019-02-06T01:14:30.881Z,38.07
2019-02-06T01:19:32.988Z,39.70
2019-02-06T01:24:34.946Z,39.83
2019-02-06T01:29:37.099Z,39.07
2019-02-06T01:34:40.138Z,35.77
2019-02-06T01:39:43.347Z,37.17
2019-02-06T01:44:45.551Z,38.10
2019-02-06T01:49:47.465Z,38.03
2019-02-06T01:54:49.516Z,37.00
2019-02-06T01:59:51.932Z,39.53
2019-02-06T02:04:53.914Z,35.00
2019-02-06T02:09:55.829Z,33.60
2019-02-06T02:14:57.739Z,36.33
2019-02-06T02:19:59.658Z,36.77
2019-02-06T02:25:02.893Z,37.70
2019-02-06T02:30:08.084Z,45.27
2019-02-06T02:35:11.220Z,41.53
2019-02-06T02:40:13.498Z,38.97
2019-02-06T02:45:16.610Z,36.20
2019-02-06T02:50:18.939Z,38.43
2019-02-06T02:55:20.970Z,35.63
2019-02-06T03:00:29.808Z,39.40
2019-02-06T03:05:33.920Z,36.90
2019-02-06T03:10:35.933Z,41.77
2019-02-06T03:15:38.347Z,42.00
2019-02-06T03:20:40.381Z,42.27
2019-02-06T03:25:42.309Z,42.17
2019-02-06T03:30:44.303Z,41.73
2019-02-06T03:35:46.231Z,41.40
2019-02-06T03:40:48.276Z,46.77
2019-02-06T03:45:50.273Z,41.67
2019-02-06T03:50:52.183Z,44.57
2019-02-06T03:55:55.406Z,42.87
2019-02-06T04:00:57.399Z,41.70
2019-02-06T04:05:59.325Z,41.40
2019-02-06T04:11:01.420Z,44.20
2019-02-06T04:16:03.942Z,43.93
2019-02-06T04:21:06.135Z,43.13
2019-02-06T04:26:08.392Z,45.07
2019-02-06T04:31:10.290Z,44.57
2019-02-06T04:36:12.445Z,42.73
2019-02-06T04:41:17.101Z,46.40
2019-02-06T04:46:19.110Z,49.57
2019-02-06T04:51:20.970Z,44.03
2019-02-06T04:56:23.014Z,42.33
2019-02-06T05:01:25.170Z,44.50
2019-02-06T05:06:27.216Z,43.90
2019-02-06T05:11:29.478Z,43.67
2019-02-06T05:16:31.893Z,43.43
2019-02-06T05:21:33.989Z,47.83
2019-02-06T05:26:38.580Z,46.43
2019-02-06T05:31:40.573Z,46.30
2019-02-06T05:36:42.532Z,49.13
2019-02-06T05:41:44.564Z,50.67
2019-02-06T05:46:46.493Z,49.53
2019-02-06T05:51:48.474Z,51.20
2019-02-06T05:56:50.860Z,49.87
2019-02-06T06:01:52.753Z,45.87
2019-02-06T06:06:54.710Z,48.67
2019-02-06T06:11:56.639Z,48.33
2019-02-06T06:16:58.831Z,54.80
2019-02-06T06:22:00.723Z,49.83
2019-02-06T06:27:02.682Z,50.77
2019-02-06T06:32:04.707Z,50.37
2019-02-06T06:37:07.980Z,46.60
2019-02-06T06:42:10.145Z,47.90
2019-02-06T06:47:12.168Z,48.97
2019-02-06T06:52:14.487Z,49.57
2019-02-06T06:57:16.405Z,54.97
2019-02-06T07:02:18.303Z,50.93
2019-02-06T07:07:20.254Z,53.43
2019-02-06T07:12:22.209Z,54.20
2019-02-06T07:17:24.141Z,49.53
2019-02-06T07:22:26.032Z,50.10
2019-02-06T07:27:29.853Z,51.13
2019-02-06T07:32:32.096Z,53.40
2019-02-06T07:37:34.245Z,44.93
2019-02-06T07:42:36.333Z,48.93
2019-02-06T07:47:38.388Z,46.10
2019-02-06T07:52:40.397Z,46.27
2019-02-06T07:57:42.694Z,45.00
2019-02-06T08:02:44.898Z,44.30
2019-02-06T08:07:47.566Z,47.10
2019-02-06T08:12:50.056Z,45.10
2019-02-06T08:17:52.059Z,40.37
2019-02-06T08:22:54.178Z,44.53
2019-02-06T08:27:56.332Z,41.90
2019-02-06T08:32:58.745Z,41.33
2019-02-06T08:38:00.868Z,34.97
2019-02-06T08:43:03.189Z,40.10
2019-02-06T08:48:05.421Z,41.67
2019-02-06T08:53:07.720Z,36.30
2019-02-06T08:58:09.805Z,37.50
2019-02-06T09:03:12.442Z,35.33
2019-02-06T09:08:14.347Z,36.93
2019-02-06T09:13:16.655Z,39.27
2019-02-06T09:18:18.671Z,30.47
2019-02-06T09:23:20.600Z,35.43
2019-02-06T09:28:22.689Z,34.73
2019-02-06T09:33:24.856Z,34.50
2019-02-06T09:38:26.760Z,31.37
2019-02-06T09:43:28.676Z,34.63
2019-02-06T09:48:30.574Z,30.57
2019-02-06T09:53:32.685Z,31.60
2019-02-06T09:58:34.576Z,32.00
2019-02-06T10:03:36.602Z,30.63
2019-02-06T10:08:38.626Z,31.03
2019-02-06T10:13:40.940Z,35.20
2019-02-06T10:18:42.936Z,33.10
2019-02-06T10:23:45.049Z,28.67
2019-02-06T10:28:47.044Z,31.87
2019-02-06T10:33:49.082Z,31.00
2019-02-06T10:38:51.151Z,32.20
2019-02-06T10:43:53.067Z,30.80
2019-02-06T10:48:54.958Z,31.80
2019-02-06T10:53:58.367Z,33.43
2019-02-06T10:59:00.265Z,31.60
2019-02-06T11:04:02.380Z,31.63
2019-02-06T11:09:06.222Z,33.20
2019-02-06T11:14:08.239Z,32.40
2019-02-06T11:19:10.253Z,33.60
2019-02-06T11:24:12.307Z,32.13
2019-02-06T11:29:14.218Z,32.87
2019-02-06T11:34:16.552Z,32.13
2019-02-06T11:39:22.779Z,35.30
2019-02-06T11:44:24.703Z,32.20
2019-02-06T11:49:33.153Z,39.20
2019-02-06T11:54:35.261Z,35.10
2019-02-06T11:59:37.161Z,35.97
2019-02-06T12:04:39.185Z,32.73
2019-02-06T12:09:41.271Z,37.33
2019-02-06T12:14:43.193Z,38.10
2019-02-06T12:19:45.075Z,34.17
2019-02-06T12:24:47.292Z,33.83
2019-02-06T12:29:49.312Z,36.17
2019-02-06T12:34:51.535Z,32.37
2019-02-06T12:39:54.136Z,30.63
2019-02-06T12:44:58.956Z,30.33
2019-02-06T12:50:00.025Z,29.13
2019-02-06T12:55:05.551Z,31.37
2019-02-06T13:00:12.627Z,31.07
2019-02-06T13:05:14.853Z,28.13
2019-02-06T13:10:17.233Z,28.97
2019-02-06T13:15:19.804Z,28.00
2019-02-06T13:20:23.679Z,29.87
2019-02-06T13:25:25.676Z,25.47
2019-02-06T13:30:29.597Z,27.17
2019-02-06T13:35:31.608Z,29.13
2019-02-06T13:40:44.735Z,27.80
2019-02-06T13:45:40.243Z,26.73
2019-02-06T13:50:42.433Z,23.40
2019-02-06T13:55:44.360Z,25.83
2019-02-06T14:00:46.597Z,23.80
2019-02-06T14:05:49.099Z,24.20
2019-02-06T14:11:00.126Z,25.20
2019-02-06T14:15:55.735Z,28.70
2019-02-06T14:20:57.883Z,23.60
2019-02-06T14:26:23.131Z,25.03
2019-02-06T14:31:45.268Z,24.47
2019-02-06T14:37:09.318Z,22.87
2019-02-06T14:42:36.931Z,25.43
2019-02-06T14:48:10.907Z,22.17
2019-02-06T14:53:29.310Z,42.00
2019-02-06T14:58:49.702Z,24.53
2019-02-06T15:04:29.396Z,22.60
2019-02-06T15:10:00.338Z,24.63
2019-02-06T15:15:33.856Z,21.60
2019-02-06T15:21:19.630Z,22.37
2019-02-06T15:26:57.061Z,24.80
2019-02-06T15:32:37.540Z,19.37
2019-02-06T15:38:21.386Z,23.13
2019-02-06T15:43:59.824Z,22.33
2019-02-06T15:49:23.895Z,18.50
2019-02-06T15:54:44.171Z,19.43
2019-02-06T16:00:28.559Z,17.77
2019-02-06T16:05:55.937Z,20.03
2019-02-06T16:11:42.343Z,15.77
2019-02-06T16:17:11.715Z,17.20
2019-02-06T16:22:39.585Z,17.50
2019-02-06T16:28:05.192Z,15.00
2019-02-06T16:33:35.903Z,16.27
2019-02-06T16:38:52.612Z,16.43
2019-02-06T16:44:34.864Z,15.77
2019-02-06T16:50:17.139Z,17.47
2019-02-06T16:55:48.726Z,15.67
2019-02-06T17:01:11.919Z,16.23
2019-02-06T17:06:53.733Z,16.93
2019-02-06T17:12:46.395Z,23.43
2019-02-06T17:18:23.992Z,17.50
2019-02-06T17:24:13.956Z,27.30
2019-02-06T17:29:55.229Z,28.33
2019-02-06T17:35:19.597Z,17.87
2019-02-06T17:40:35.597Z,27.37
2019-02-06T17:46:00.613Z,18.20
2019-02-06T17:51:41.760Z,24.13
2019-02-06T17:56:43.776Z,20.87
2019-02-06T18:01:50.120Z,20.90
2019-02-06T18:06:52.322Z,18.43
2019-02-06T18:11:54.235Z,17.50
2019-02-06T18:16:56.587Z,59.43
2019-02-06T18:21:58.460Z,42.00
2019-02-06T18:27:00.513Z,53.27
2019-02-06T18:32:03.362Z,28.67
2019-02-06T18:37:05.545Z,19.03
2019-02-06T18:42:07.541Z,36.40
2019-02-06T18:47:09.555Z,22.63
2019-02-06T18:52:20.260Z,17.20
2019-02-06T18:57:16.121Z,18.17
2019-02-06T19:02:18.209Z,61.93
2019-02-06T19:07:20.287Z,25.87
2019-02-06T19:12:22.503Z,31.50
2019-02-06T19:17:24.533Z,41.37
2019-02-06T19:22:26.425Z,51.37
2019-02-06T19:27:28.331Z,42.87
2019-02-06T19:32:30.268Z,23.90
2019-02-06T19:37:32.176Z,21.40
2019-02-06T19:42:34.087Z,20.43
2019-02-06T19:47:36.218Z,17.87
2019-02-06T19:52:38.112Z,19.73
2019-02-06T19:57:40.318Z,16.63
2019-02-06T20:02:43.627Z,18.40
2019-02-06T20:07:45.545Z,22.87
2019-02-06T20:12:47.849Z,19.60
2019-02-06T20:17:51.148Z,21.53
2019-02-06T20:22:53.359Z,18.77
2019-02-06T20:27:55.490Z,19.07
2019-02-06T20:32:57.427Z,22.17
2019-02-06T20:37:59.432Z,19.43
2019-02-06T20:43:01.532Z,19.27
2019-02-06T20:48:03.895Z,19.90
2019-02-06T20:53:05.991Z,22.20
2019-02-06T20:58:07.988Z,22.10
2019-02-06T21:03:10.016Z,18.50
2019-02-06T21:08:12.037Z,19.03
2019-02-06T21:13:13.984Z,19.97
2019-02-06T21:18:16.019Z,21.77
2019-02-06T21:23:18.885Z,17.60
2019-02-06T21:28:20.992Z,22.10
2019-02-06T21:33:22.907Z,17.13
2019-02-06T21:38:24.796Z,20.20
2019-02-06T21:43:26.882Z,19.50
2019-02-06T21:48:28.791Z,20.63
2019-02-06T21:53:30.683Z,19.27
2019-02-06T21:58:32.631Z,19.83
2019-02-06T22:03:34.819Z,19.73
2019-02-06T22:08:36.811Z,18.33
2019-02-06T22:13:40.764Z,18.30
2019-02-06T22:18:42.664Z,19.27
2019-02-06T22:23:44.649Z,17.97
2019-02-06T22:28:46.886Z,19.80
2019-02-06T22:33:49.329Z,17.27
2019-02-06T22:38:51.763Z,19.37
2019-02-06T22:43:53.725Z,21.93
2019-02-06T22:48:55.740Z,20.93
2019-02-06T22:53:57.649Z,19.53
2019-02-06T22:58:59.653Z,20.33
2019-02-06T23:04:01.960Z,19.47
2019-02-06T23:09:06.603Z,18.07
2019-02-06T23:14:17.127Z,17.90
2019-02-06T23:19:12.875Z,18.73
2019-02-06T23:24:15.015Z,20.13
2019-02-06T23:29:17.309Z,19.67
2019-02-06T23:34:19.218Z,21.03
2019-02-06T23:39:21.316Z,19.87
2019-02-06T23:44:28.937Z,20.67
2019-02-06T23:49:28.130Z,20.47
2019-02-06T23:54:30.147Z,18.70
2019-02-06T23:59:32.170Z,20.43
